createdAt,value
2017-10-17T00:00:32.099Z,13.9
2017-10-17T00:01:32.904Z,11.3
2017-10-17T00:02:33.723Z,15.6
2017-10-17T00:03:34.533Z,20.5
2017-10-17T00:04:35.398Z,12.8
2017-10-17T00:05:36.150Z,13.6
2017-10-17T00:06:36.934Z,17.6
2017-10-17T00:07:37.749Z,16.2
2017-10-17T00:08:38.476Z,12.3
2017-10-17T00:09:39.522Z,13.7
2017-10-17T00:10:40.269Z,22.7
2017-10-17T00:11:41.010Z,14.6
2017-10-17T00:12:41.819Z,13.0
2017-10-17T00:13:42.561Z,15.0
2017-10-17T00:14:43.283Z,15.5
2017-10-17T00:15:44.070Z,14.3
2017-10-17T00:16:44.800Z,14.4
2017-10-17T00:17:45.662Z,15.7
2017-10-17T00:18:46.494Z,16.6
2017-10-17T00:19:47.239Z,18.2
2017-10-17T00:20:47.971Z,17.6
2017-10-17T00:21:48.792Z,13.8
2017-10-17T00:22:49.598Z,13.2
2017-10-17T00:23:50.502Z,19.5
2017-10-17T00:24:51.297Z,17.8
2017-10-17T00:25:52.094Z,19.9
2017-10-17T00:26:52.879Z,20.8
2017-10-17T00:27:53.620Z,16.1
2017-10-17T00:28:54.360Z,20.5
2017-10-17T00:29:55.146Z,18.9
2017-10-17T00:30:55.947Z,21.6
2017-10-17T00:31:56.681Z,22.3
2017-10-17T00:32:57.471Z,20.6
2017-10-17T00:33:58.203Z,21.3
2017-10-17T00:34:59.039Z,22.2
2017-10-17T00:35:59.770Z,19.5
2017-10-17T00:37:00.573Z,15.5
2017-10-17T00:38:01.312Z,19.1
2017-10-17T00:39:02.110Z,14.3
2017-10-17T00:40:02.895Z,23.9
2017-10-17T00:41:03.626Z,17.8
2017-10-17T00:42:04.370Z,16.4
2017-10-17T00:43:05.120Z,17.5
2017-10-17T00:44:05.858Z,20.7
2017-10-17T00:45:06.664Z,15.3
2017-10-17T00:46:07.492Z,23.3
2017-10-17T00:47:08.290Z,18.8
2017-10-17T00:48:09.001Z,22.5
2017-10-17T00:49:09.802Z,17.4
2017-10-17T00:50:10.573Z,23.8
2017-10-17T00:51:11.310Z,17.4
2017-10-17T00:52:12.126Z,13.4
2017-10-17T00:53:12.930Z,16.7
2017-10-17T00:54:13.731Z,18.5
2017-10-17T00:55:14.569Z,15.2
2017-10-17T00:56:15.378Z,13.5
2017-10-17T00:57:16.111Z,13.6
2017-10-17T00:58:16.856Z,15.2
2017-10-17T00:59:17.648Z,18.3
2017-10-17T01:00:18.427Z,15.4
2017-10-17T01:01:19.158Z,18.9
2017-10-17T01:02:19.914Z,13.7
2017-10-17T01:03:20.581Z,17.3
2017-10-17T01:04:21.314Z,15.9
2017-10-17T01:05:22.055Z,14.1
2017-10-17T01:06:22.778Z,17.9
2017-10-17T01:07:23.511Z,19.4
2017-10-17T01:08:24.338Z,22.6
2017-10-17T01:09:25.097Z,21.9
2017-10-17T01:10:25.889Z,13.3
2017-10-17T01:11:26.700Z,14.0
2017-10-17T01:12:27.443Z,14.0
2017-10-17T01:13:28.177Z,19.0
2017-10-17T01:14:28.981Z,24.5
2017-10-17T01:15:29.808Z,16.0
2017-10-17T01:16:30.534Z,35.2
2017-10-17T01:17:31.274Z,12.4
2017-10-17T01:18:31.995Z,19.9
2017-10-17T01:20:51.051Z,13.8
2017-10-17T01:21:51.799Z,12.9
2017-10-17T01:22:52.602Z,16.0
2017-10-17T01:23:53.337Z,16.0
2017-10-17T01:24:54.076Z,14.0
2017-10-17T01:25:55.179Z,15.7
2017-10-17T01:26:55.919Z,16.0
2017-10-17T01:27:56.659Z,16.4
2017-10-17T01:28:57.396Z,14.7
2017-10-17T01:29:58.189Z,12.6
2017-10-17T01:30:59.022Z,12.4
2017-10-17T01:31:59.788Z,23.8
2017-10-17T01:33:00.563Z,12.5
2017-10-17T01:34:01.296Z,12.8
2017-10-17T01:35:02.039Z,11.8
2017-10-17T01:36:02.778Z,10.1
2017-10-17T01:37:03.518Z,15.7
2017-10-17T01:38:04.668Z,16.4
2017-10-17T01:39:05.409Z,12.3
2017-10-17T01:40:06.149Z,11.6
2017-10-17T01:41:06.882Z,13.8
2017-10-17T01:42:07.616Z,16.0
2017-10-17T01:43:08.424Z,23.9
2017-10-17T01:44:09.175Z,17.6
2017-10-17T01:45:09.913Z,11.8
2017-10-17T01:46:10.709Z,13.8
2017-10-17T01:47:11.519Z,11.4
2017-10-17T01:48:12.320Z,22.5
2017-10-17T01:49:13.142Z,11.3
2017-10-17T01:50:13.924Z,11.6
2017-10-17T01:51:14.732Z,19.8
2017-10-17T01:52:15.508Z,13.3
2017-10-17T01:53:16.239Z,17.4
2017-10-17T01:54:16.970Z,24.5
2017-10-17T01:55:17.701Z,20.5
2017-10-17T01:56:18.429Z,24.3
2017-10-17T01:57:19.267Z,16.4
2017-10-17T01:58:20.008Z,14.0
2017-10-17T01:59:20.775Z,11.6
2017-10-17T02:00:21.506Z,13.4
2017-10-17T02:01:22.251Z,21.4
2017-10-17T02:02:23.381Z,15.2
2017-10-17T02:03:24.110Z,17.8
2017-10-17T02:04:24.841Z,10.7
2017-10-17T02:05:25.661Z,21.9
2017-10-17T02:06:26.472Z,22.7
2017-10-17T02:07:27.388Z,16.2
2017-10-17T02:08:28.132Z,14.1
2017-10-17T02:09:28.918Z,14.0
2017-10-17T02:10:29.702Z,17.3
2017-10-17T02:11:30.497Z,22.9
2017-10-17T02:12:31.260Z,19.0
2017-10-17T02:13:31.993Z,19.4
2017-10-17T02:14:33.081Z,17.1
2017-10-17T02:15:33.897Z,13.6
2017-10-17T02:16:34.669Z,15.2
2017-10-17T02:17:35.439Z,17.8
2017-10-17T02:18:36.250Z,16.7
2017-10-17T02:19:37.041Z,120.8
2017-10-17T02:20:37.779Z,67.7
2017-10-17T02:21:38.537Z,25.9
2017-10-17T02:22:39.295Z,25.3
2017-10-17T02:23:40.031Z,21.5
2017-10-17T02:24:40.830Z,12.6
2017-10-17T02:25:41.641Z,23.5
2017-10-17T02:26:42.454Z,49.1
2017-10-17T02:27:43.190Z,26.8
2017-10-17T02:28:43.980Z,18.5
2017-10-17T02:29:44.720Z,15.7
2017-10-17T02:30:45.449Z,13.7
2017-10-17T02:31:46.279Z,12.7
2017-10-17T02:32:47.028Z,13.9
2017-10-17T02:33:47.816Z,15.4
2017-10-17T02:34:48.624Z,15.0
2017-10-17T02:35:49.358Z,17.8
2017-10-17T02:36:50.139Z,16.3
2017-10-17T02:37:50.879Z,13.8
2017-10-17T02:38:51.613Z,12.1
2017-10-17T02:39:52.366Z,12.7
2017-10-17T02:40:53.148Z,17.0
2017-10-17T02:41:53.974Z,12.0
2017-10-17T02:42:54.781Z,14.9
2017-10-17T02:43:55.580Z,15.0
2017-10-17T02:44:56.326Z,12.2
2017-10-17T02:45:57.121Z,11.1
2017-10-17T02:46:57.929Z,23.4
2017-10-17T02:47:58.718Z,15.1
2017-10-17T02:48:59.450Z,34.3
2017-10-17T02:50:00.180Z,15.7
2017-10-17T02:51:00.917Z,19.7
2017-10-17T02:52:01.739Z,16.1
2017-10-17T02:53:02.473Z,13.4
2017-10-17T02:54:03.264Z,11.5
2017-10-17T02:55:03.990Z,17.3
2017-10-17T02:56:04.800Z,21.0
2017-10-17T02:57:05.901Z,16.5
2017-10-17T02:58:06.708Z,19.7
2017-10-17T02:59:07.440Z,13.8
2017-10-17T03:00:08.264Z,19.4
2017-10-17T03:01:09.048Z,15.7
2017-10-17T03:02:09.837Z,14.0
2017-10-17T03:03:10.569Z,17.1
2017-10-17T03:04:11.360Z,14.7
2017-10-17T03:05:12.098Z,16.6
2017-10-17T03:06:12.828Z,18.8
2017-10-17T03:07:13.561Z,16.4
2017-10-17T03:08:14.338Z,16.9
2017-10-17T03:09:15.089Z,16.1
2017-10-17T03:10:15.820Z,16.5
2017-10-17T03:11:16.632Z,19.1
2017-10-17T03:12:17.468Z,15.4
2017-10-17T03:13:18.200Z,15.4
2017-10-17T03:14:19.005Z,17.0
2017-10-17T03:15:19.728Z,11.7
2017-10-17T03:16:20.533Z,26.8
2017-10-17T03:17:21.338Z,18.2
2017-10-17T03:18:22.069Z,17.1
2017-10-17T03:19:22.799Z,15.3
2017-10-17T03:20:23.526Z,14.0
2017-10-17T03:21:24.255Z,12.0
2017-10-17T03:22:25.104Z,17.8
2017-10-17T03:23:25.841Z,14.7
2017-10-17T03:24:26.582Z,21.6
2017-10-17T03:25:27.317Z,16.5
2017-10-17T03:26:28.054Z,17.4
2017-10-17T03:27:29.133Z,13.3
2017-10-17T03:28:29.939Z,16.9
2017-10-17T03:29:30.669Z,12.8
2017-10-17T03:30:31.402Z,13.4
2017-10-17T03:31:32.190Z,26.3
2017-10-17T03:32:33.027Z,15.5
2017-10-17T03:33:33.828Z,15.3
2017-10-17T03:34:34.560Z,11.0
2017-10-17T03:35:35.294Z,18.8
2017-10-17T03:36:36.081Z,18.1
2017-10-17T03:37:37.216Z,13.5
2017-10-17T03:38:37.991Z,13.0
2017-10-17T03:39:38.809Z,14.5
2017-10-17T03:40:39.575Z,16.1
2017-10-17T03:41:40.337Z,12.0
2017-10-17T03:42:41.121Z,12.2
2017-10-17T03:43:41.831Z,18.3
2017-10-17T03:44:42.565Z,15.0
2017-10-17T03:45:43.374Z,15.2
2017-10-17T03:46:44.164Z,12.0
2017-10-17T03:47:45.076Z,16.3
2017-10-17T03:48:45.882Z,16.9
2017-10-17T03:49:46.691Z,16.6
2017-10-17T03:50:47.481Z,12.2
2017-10-17T03:51:48.211Z,16.1
2017-10-17T03:52:48.991Z,21.4
2017-10-17T03:53:49.790Z,17.3
2017-10-17T03:54:50.519Z,23.0
2017-10-17T03:55:51.272Z,22.0
2017-10-17T03:56:52.049Z,13.8
2017-10-17T03:57:52.831Z,13.5
2017-10-17T03:58:53.564Z,14.1
2017-10-17T03:59:54.389Z,24.9
2017-10-17T04:00:55.121Z,17.2
2017-10-17T04:01:55.849Z,12.3
2017-10-17T04:02:56.632Z,15.3
2017-10-17T04:03:57.431Z,16.5
2017-10-17T04:04:58.160Z,11.3
2017-10-17T04:05:58.887Z,16.8
2017-10-17T04:06:59.612Z,19.0
2017-10-17T04:08:00.396Z,14.5
2017-10-17T04:09:01.131Z,22.3
2017-10-17T04:10:01.860Z,17.6
2017-10-17T04:11:02.612Z,12.7
2017-10-17T04:12:03.391Z,16.0
2017-10-17T04:13:04.299Z,17.1
2017-10-17T04:14:05.104Z,15.7
2017-10-17T04:15:05.895Z,12.5
2017-10-17T04:16:06.627Z,13.7
2017-10-17T04:17:07.461Z,14.3
2017-10-17T04:18:08.190Z,17.0
2017-10-17T04:19:08.917Z,20.9
2017-10-17T04:20:09.651Z,13.2
2017-10-17T04:21:10.450Z,12.5
2017-10-17T04:22:11.180Z,17.0
2017-10-17T04:23:12.310Z,18.4
2017-10-17T04:24:13.049Z,16.3
2017-10-17T04:25:13.773Z,30.5
2017-10-17T04:26:14.514Z,12.4
2017-10-17T04:27:15.300Z,11.4
2017-10-17T04:28:16.033Z,15.2
2017-10-17T04:29:16.879Z,11.0
2017-10-17T04:30:17.688Z,12.7
2017-10-17T04:31:18.456Z,14.2
2017-10-17T04:32:19.279Z,14.0
2017-10-17T04:33:20.013Z,17.2
2017-10-17T04:34:20.799Z,12.2
2017-10-17T04:35:21.531Z,15.4
2017-10-17T04:36:22.260Z,18.5
2017-10-17T04:37:22.987Z,18.7
2017-10-17T04:38:23.720Z,20.8
2017-10-17T04:39:24.628Z,27.8
2017-10-17T04:40:25.354Z,19.7
2017-10-17T04:41:26.093Z,15.6
2017-10-17T04:42:26.894Z,13.4
2017-10-17T04:43:27.637Z,11.6
2017-10-17T04:44:28.718Z,13.7
2017-10-17T04:45:29.548Z,19.9
2017-10-17T04:46:30.354Z,16.1
2017-10-17T04:47:31.066Z,18.6
2017-10-17T04:48:31.829Z,15.0
2017-10-17T04:50:46.962Z,25.8
2017-10-17T04:51:47.690Z,14.0
2017-10-17T04:52:48.498Z,14.9
2017-10-17T04:53:49.228Z,18.3
2017-10-17T04:54:50.025Z,17.6
2017-10-17T04:55:50.799Z,23.1
2017-10-17T04:56:51.599Z,17.9
2017-10-17T04:57:52.395Z,49.5
2017-10-17T04:58:53.182Z,212.5
2017-10-17T04:59:53.978Z,103.9
2017-10-17T05:00:54.733Z,120.0
2017-10-17T05:01:55.518Z,58.2
2017-10-17T05:02:56.249Z,28.0
2017-10-17T05:03:57.039Z,32.5
2017-10-17T05:04:57.789Z,22.5
2017-10-17T05:05:58.519Z,25.5
2017-10-17T05:06:59.249Z,21.9
2017-10-17T05:07:59.989Z,18.0
2017-10-17T05:09:01.018Z,23.2
2017-10-17T05:10:01.758Z,19.5
2017-10-17T05:11:02.481Z,16.5
2017-10-17T05:12:03.211Z,17.3
2017-10-17T05:13:03.932Z,20.9
2017-10-17T05:14:04.669Z,15.2
2017-10-17T05:15:05.521Z,25.3
2017-10-17T05:16:06.259Z,18.2
2017-10-17T05:17:07.062Z,17.6
2017-10-17T05:18:07.798Z,17.3
2017-10-17T05:19:08.535Z,22.0
2017-10-17T05:20:09.268Z,23.9
2017-10-17T05:21:10.065Z,20.3
2017-10-17T05:22:10.800Z,21.9
2017-10-17T05:23:11.529Z,21.2
2017-10-17T05:24:12.266Z,26.7
2017-10-17T05:25:13.046Z,23.4
2017-10-17T05:26:13.780Z,23.8
2017-10-17T05:27:14.519Z,22.6
2017-10-17T05:28:15.257Z,22.4
2017-10-17T05:29:16.053Z,20.8
2017-10-17T05:30:17.261Z,19.6
2017-10-17T05:31:17.996Z,23.4
2017-10-17T05:32:18.671Z,24.5
2017-10-17T05:33:19.422Z,26.5
2017-10-17T05:34:20.201Z,29.4
2017-10-17T05:35:21.321Z,24.1
2017-10-17T05:36:22.061Z,23.1
2017-10-17T05:37:22.791Z,23.3
2017-10-17T05:38:23.550Z,21.4
2017-10-17T05:39:24.320Z,23.1
2017-10-17T05:40:25.140Z,21.6
2017-10-17T05:41:25.865Z,27.7
2017-10-17T05:42:26.655Z,30.6
2017-10-17T05:43:27.434Z,30.4
2017-10-17T05:44:28.160Z,24.1
2017-10-17T05:45:28.957Z,23.5
2017-10-17T05:46:29.690Z,32.2
2017-10-17T05:47:30.432Z,27.4
2017-10-17T05:48:31.246Z,31.5
2017-10-17T05:49:31.975Z,27.8
2017-10-17T05:50:32.811Z,22.5
2017-10-17T05:51:33.553Z,23.9
2017-10-17T05:52:34.361Z,33.1
2017-10-17T05:53:35.075Z,28.1
2017-10-17T05:54:35.812Z,22.7
2017-10-17T05:55:36.630Z,27.4
2017-10-17T05:56:37.374Z,30.1
2017-10-17T05:57:38.151Z,31.4
2017-10-17T05:58:38.891Z,32.7
2017-10-17T05:59:39.642Z,27.9
2017-10-17T06:00:40.421Z,26.3
2017-10-17T06:01:41.232Z,26.2
2017-10-17T06:02:41.962Z,32.6
2017-10-17T06:03:42.765Z,32.6
2017-10-17T06:04:43.564Z,34.3
2017-10-17T06:05:44.346Z,26.9
2017-10-17T06:06:45.071Z,21.8
2017-10-17T06:07:45.876Z,30.3
2017-10-17T06:08:46.709Z,30.2
2017-10-17T06:09:47.452Z,28.1
2017-10-17T06:10:48.286Z,27.0
2017-10-17T06:11:49.042Z,28.8
2017-10-17T06:12:49.791Z,31.5
2017-10-17T06:13:50.603Z,27.1
2017-10-17T06:14:51.780Z,24.9
2017-10-17T06:15:52.510Z,27.4
2017-10-17T06:16:53.253Z,27.6
2017-10-17T06:17:54.044Z,28.0
2017-10-17T06:18:54.855Z,25.5
2017-10-17T06:19:55.659Z,30.1
2017-10-17T06:20:56.489Z,26.9
2017-10-17T06:21:57.290Z,31.1
2017-10-17T06:22:58.018Z,29.8
2017-10-17T06:23:58.759Z,29.1
2017-10-17T06:24:59.490Z,25.5
2017-10-17T06:26:00.344Z,24.5
2017-10-17T06:27:01.129Z,34.0
2017-10-17T06:28:01.948Z,28.3
2017-10-17T06:29:02.691Z,30.0
2017-10-17T06:30:03.498Z,30.1
2017-10-17T06:31:04.294Z,26.2
2017-10-17T06:32:05.098Z,28.4
2017-10-17T06:33:05.869Z,33.2
2017-10-17T06:34:06.679Z,33.7
2017-10-17T06:35:07.365Z,32.1
2017-10-17T06:36:08.189Z,29.8
2017-10-17T06:37:08.962Z,26.7
2017-10-17T06:38:09.673Z,41.9
2017-10-17T06:39:10.472Z,33.1
2017-10-17T06:40:11.320Z,34.5
2017-10-17T06:41:12.229Z,28.6
2017-10-17T06:42:12.963Z,31.4
2017-10-17T06:43:13.712Z,37.5
2017-10-17T06:44:14.533Z,41.2
2017-10-17T06:45:15.321Z,32.4
2017-10-17T06:46:16.518Z,28.0
2017-10-17T06:47:17.255Z,28.4
2017-10-17T06:48:18.012Z,25.2
2017-10-17T06:49:18.690Z,28.4
2017-10-17T06:50:19.447Z,27.7
2017-10-17T06:51:20.620Z,32.7
2017-10-17T06:52:21.349Z,32.2
2017-10-17T06:53:22.089Z,30.5
2017-10-17T06:54:22.829Z,32.5
2017-10-17T06:55:23.569Z,36.1
2017-10-17T06:56:24.705Z,29.2
2017-10-17T06:57:25.500Z,27.6
2017-10-17T06:58:26.230Z,29.1
2017-10-17T06:59:26.969Z,33.3
2017-10-17T07:00:27.711Z,32.4
2017-10-17T07:01:28.952Z,32.5
2017-10-17T07:02:29.648Z,27.6
2017-10-17T07:03:30.392Z,28.7
2017-10-17T07:04:31.140Z,31.7
2017-10-17T07:05:31.885Z,32.9
2017-10-17T07:06:32.750Z,29.8
2017-10-17T07:07:33.497Z,29.3
2017-10-17T07:08:34.273Z,25.8
2017-10-17T07:09:35.054Z,31.6
2017-10-17T07:10:35.873Z,29.5
2017-10-17T07:11:36.653Z,30.8
2017-10-17T07:12:37.399Z,31.7
2017-10-17T07:13:38.300Z,28.5
2017-10-17T07:14:39.043Z,26.6
2017-10-17T07:15:39.785Z,22.7
2017-10-17T07:16:40.520Z,30.1
2017-10-17T07:17:41.271Z,24.2
2017-10-17T07:18:42.084Z,31.7
2017-10-17T07:19:42.844Z,31.7
2017-10-17T07:20:43.580Z,25.5
2017-10-17T07:21:44.325Z,31.6
2017-10-17T07:22:45.125Z,23.8
2017-10-17T07:23:45.971Z,25.3
2017-10-17T07:24:46.711Z,36.9
2017-10-17T07:25:47.458Z,26.7
2017-10-17T07:26:48.199Z,34.4
2017-10-17T07:27:48.937Z,35.5
2017-10-17T07:28:49.780Z,29.1
2017-10-17T07:29:50.519Z,25.8
2017-10-17T07:30:51.260Z,26.2
2017-10-17T07:31:52.004Z,30.4
2017-10-17T07:32:52.742Z,28.3
2017-10-17T07:33:53.659Z,27.9
2017-10-17T07:34:54.481Z,28.5
2017-10-17T07:35:55.221Z,27.9
2017-10-17T07:36:55.959Z,26.5
2017-10-17T07:37:56.700Z,30.2
2017-10-17T07:38:57.488Z,26.9
2017-10-17T07:39:58.300Z,28.4
2017-10-17T07:40:59.039Z,28.8
2017-10-17T07:41:59.779Z,32.6
2017-10-17T07:43:00.510Z,25.0
2017-10-17T07:44:01.348Z,27.1
2017-10-17T07:45:02.101Z,31.1
2017-10-17T07:46:02.902Z,27.7
2017-10-17T07:47:03.712Z,30.8
2017-10-17T07:48:04.453Z,30.4
2017-10-17T07:49:05.293Z,30.1
2017-10-17T07:50:06.108Z,39.3
2017-10-17T07:51:06.848Z,25.4
2017-10-17T07:52:07.609Z,31.5
2017-10-17T07:53:08.391Z,28.8
2017-10-17T07:54:09.175Z,26.5
2017-10-17T07:55:09.908Z,32.1
2017-10-17T07:56:10.650Z,30.4
2017-10-17T07:57:11.390Z,27.6
2017-10-17T07:58:12.189Z,34.1
2017-10-17T07:59:12.984Z,32.4
2017-10-17T08:00:13.762Z,30.9
2017-10-17T08:01:14.513Z,26.6
2017-10-17T08:02:15.298Z,28.4
2017-10-17T08:03:16.107Z,32.5
2017-10-17T08:04:16.947Z,30.4
2017-10-17T08:05:17.697Z,37.0
2017-10-17T08:06:18.428Z,36.9
2017-10-17T08:07:19.163Z,35.4
2017-10-17T08:08:19.897Z,36.1
2017-10-17T08:09:20.637Z,33.8
2017-10-17T08:10:21.487Z,37.3
2017-10-17T08:11:22.261Z,32.4
2017-10-17T08:12:23.037Z,38.8
2017-10-17T08:13:23.788Z,39.7
2017-10-17T08:14:24.522Z,32.8
2017-10-17T08:15:25.385Z,41.8
2017-10-17T08:16:26.120Z,40.2
2017-10-17T08:17:26.868Z,40.5
2017-10-17T08:18:27.656Z,36.3
2017-10-17T08:19:28.387Z,30.9
2017-10-17T08:20:29.170Z,42.4
2017-10-17T08:21:29.977Z,41.0
2017-10-17T08:22:30.796Z,42.0
2017-10-17T08:23:31.544Z,35.7
2017-10-17T08:24:32.335Z,35.0
2017-10-17T08:25:33.169Z,37.0
2017-10-17T08:26:33.985Z,38.6
2017-10-17T08:27:34.728Z,33.9
2017-10-17T08:28:35.516Z,44.2
2017-10-17T08:29:36.268Z,35.0
2017-10-17T08:30:37.177Z,40.0
2017-10-17T08:31:37.997Z,29.8
2017-10-17T08:32:38.733Z,36.2
2017-10-17T08:33:39.475Z,36.6
2017-10-17T08:34:40.216Z,29.3
2017-10-17T08:35:41.311Z,29.4
2017-10-17T08:36:42.047Z,35.9
2017-10-17T08:37:42.873Z,37.1
2017-10-17T08:38:43.669Z,36.3
2017-10-17T08:39:44.450Z,28.5
2017-10-17T08:40:45.603Z,38.1
2017-10-17T08:41:46.377Z,35.2
2017-10-17T08:42:47.113Z,32.3
2017-10-17T08:43:47.898Z,28.6
2017-10-17T08:44:48.630Z,38.9
2017-10-17T08:45:49.774Z,36.6
2017-10-17T08:46:50.512Z,31.8
2017-10-17T08:47:51.327Z,30.6
2017-10-17T08:48:52.076Z,34.8
2017-10-17T08:49:52.820Z,27.2
2017-10-17T08:50:53.615Z,28.8
2017-10-17T08:51:54.426Z,33.2
2017-10-17T08:52:55.166Z,38.4
2017-10-17T08:53:55.923Z,34.3
2017-10-17T08:54:56.655Z,37.2
2017-10-17T08:55:57.503Z,29.5
2017-10-17T08:56:58.282Z,32.1
2017-10-17T08:57:59.068Z,39.1
2017-10-17T08:58:59.808Z,38.0
2017-10-17T09:00:00.547Z,31.1
2017-10-17T09:01:01.278Z,26.6
2017-10-17T09:02:02.450Z,33.1
2017-10-17T09:03:03.188Z,29.5
2017-10-17T09:04:03.928Z,30.0
2017-10-17T09:05:04.746Z,36.6
2017-10-17T09:06:05.493Z,42.3
2017-10-17T09:07:06.439Z,34.2
2017-10-17T09:08:07.151Z,50.3
2017-10-17T09:09:07.935Z,34.3
2017-10-17T09:10:08.671Z,38.8
2017-10-17T09:11:09.450Z,36.0
2017-10-17T09:12:10.186Z,34.6
2017-10-17T09:13:10.979Z,32.1
2017-10-17T09:14:11.723Z,32.8
2017-10-17T09:15:12.532Z,45.6
2017-10-17T09:16:13.343Z,40.0
2017-10-17T09:17:14.169Z,36.0
2017-10-17T09:18:14.980Z,34.3
2017-10-17T09:19:15.888Z,39.7
2017-10-17T09:20:16.680Z,41.8
2017-10-17T09:21:17.427Z,51.7
2017-10-17T09:22:18.208Z,38.9
2017-10-17T09:23:18.959Z,41.9
2017-10-17T09:24:20.153Z,43.0
2017-10-17T09:25:20.950Z,34.3
2017-10-17T09:26:21.690Z,38.9
2017-10-17T09:27:22.449Z,39.4
2017-10-17T09:28:23.196Z,42.7
2017-10-17T09:29:23.998Z,36.1
2017-10-17T09:30:24.752Z,32.4
2017-10-17T09:31:25.539Z,36.1
2017-10-17T09:32:26.274Z,30.7
2017-10-17T09:33:27.015Z,40.7
2017-10-17T09:34:27.760Z,40.5
2017-10-17T09:35:28.515Z,39.3
2017-10-17T09:36:29.421Z,37.5
2017-10-17T09:37:30.229Z,40.8
2017-10-17T09:38:30.970Z,30.5
2017-10-17T09:39:31.774Z,32.1
2017-10-17T09:40:32.567Z,31.5
2017-10-17T09:41:33.468Z,36.4
2017-10-17T09:42:34.281Z,35.9
2017-10-17T09:43:35.090Z,39.4
2017-10-17T09:44:35.888Z,34.0
2017-10-17T09:45:36.624Z,38.4
2017-10-17T09:46:37.410Z,40.6
2017-10-17T09:47:38.156Z,44.8
2017-10-17T09:48:38.959Z,40.9
2017-10-17T09:49:39.706Z,41.8
2017-10-17T09:50:40.443Z,36.4
2017-10-17T09:51:41.993Z,37.3
2017-10-17T09:52:42.790Z,33.8
2017-10-17T09:53:43.537Z,33.7
2017-10-17T09:54:44.282Z,35.2
2017-10-17T09:55:45.101Z,35.4
2017-10-17T09:56:45.841Z,32.5
2017-10-17T09:57:46.575Z,39.0
2017-10-17T09:58:47.375Z,31.9
2017-10-17T09:59:48.173Z,32.2
2017-10-17T10:00:48.959Z,35.0
2017-10-17T10:01:49.750Z,49.0
2017-10-17T10:02:50.521Z,34.1
2017-10-17T10:03:51.311Z,33.6
2017-10-17T10:04:52.058Z,32.3
2017-10-17T10:05:52.820Z,38.0
2017-10-17T10:06:53.656Z,34.5
2017-10-17T10:07:54.400Z,40.4
2017-10-17T10:08:55.152Z,47.0
2017-10-17T10:09:55.960Z,42.0
2017-10-17T10:10:56.721Z,42.0
2017-10-17T10:11:57.600Z,36.5
2017-10-17T10:12:58.354Z,38.5
2017-10-17T10:13:59.145Z,35.6
2017-10-17T10:14:59.947Z,37.3
2017-10-17T10:16:00.733Z,39.6
2017-10-17T10:17:01.601Z,32.8
2017-10-17T10:18:02.345Z,37.4
2017-10-17T10:19:03.150Z,38.8
2017-10-17T10:20:03.913Z,36.1
2017-10-17T10:21:04.727Z,46.2
2017-10-17T10:22:05.920Z,35.1
2017-10-17T10:23:06.659Z,46.5
2017-10-17T10:24:07.461Z,44.0
2017-10-17T10:25:08.200Z,33.4
2017-10-17T10:26:08.940Z,37.6
2017-10-17T10:27:09.980Z,39.2
2017-10-17T10:28:10.732Z,47.2
2017-10-17T10:29:11.452Z,40.6
2017-10-17T10:30:12.187Z,46.7
2017-10-17T10:31:12.931Z,47.0
2017-10-17T10:32:13.670Z,44.4
2017-10-17T10:33:14.441Z,40.6
2017-10-17T10:34:15.224Z,45.3
2017-10-17T10:35:16.027Z,42.5
2017-10-17T10:36:16.765Z,42.8
2017-10-17T10:37:17.581Z,52.2
2017-10-17T10:38:18.325Z,43.0
2017-10-17T10:39:19.062Z,49.3
2017-10-17T10:40:19.982Z,44.3
2017-10-17T10:41:20.791Z,44.3
2017-10-17T10:42:21.601Z,44.7
2017-10-17T10:43:22.440Z,43.6
2017-10-17T10:44:23.181Z,48.1
2017-10-17T10:45:24.221Z,46.0
2017-10-17T10:46:24.961Z,44.6
2017-10-17T10:47:25.701Z,49.6
2017-10-17T10:48:26.451Z,44.3
2017-10-17T10:49:27.218Z,41.1
2017-10-17T10:50:28.042Z,48.5
2017-10-17T10:51:28.800Z,51.2
2017-10-17T10:52:29.605Z,37.9
2017-10-17T10:53:30.351Z,45.0
2017-10-17T10:54:31.107Z,48.6
2017-10-17T10:55:31.898Z,39.1
2017-10-17T10:56:32.690Z,45.0
2017-10-17T10:57:33.442Z,42.7
2017-10-17T10:58:34.292Z,44.9
2017-10-17T10:59:35.100Z,44.8
2017-10-17T11:00:35.839Z,41.0
2017-10-17T11:01:36.650Z,44.6
2017-10-17T11:02:37.400Z,47.0
2017-10-17T11:03:38.196Z,44.1
2017-10-17T11:04:39.000Z,52.8
2017-10-17T11:05:39.755Z,46.7
2017-10-17T11:06:40.561Z,53.2
2017-10-17T11:07:41.292Z,45.8
2017-10-17T11:08:42.224Z,53.8
2017-10-17T11:09:43.012Z,55.3
2017-10-17T11:10:43.745Z,47.6
2017-10-17T11:11:44.583Z,61.3
2017-10-17T11:12:45.401Z,58.6
2017-10-17T11:13:46.234Z,51.8
2017-10-17T11:14:46.979Z,47.5
2017-10-17T11:15:47.723Z,50.2
2017-10-17T11:16:48.462Z,53.5
2017-10-17T11:17:49.267Z,55.5
2017-10-17T11:18:50.359Z,51.0
2017-10-17T11:19:51.118Z,55.0
2017-10-17T11:20:51.910Z,53.0
2017-10-17T11:21:52.656Z,55.9
2017-10-17T11:22:53.400Z,51.0
2017-10-17T11:23:54.191Z,56.1
2017-10-17T11:24:55.011Z,55.5
2017-10-17T11:25:55.858Z,52.2
2017-10-17T11:26:56.605Z,55.6
2017-10-17T11:27:57.433Z,53.0
2017-10-17T11:28:58.271Z,68.4
2017-10-17T11:29:59.077Z,54.6
2017-10-17T11:30:59.833Z,49.8
2017-10-17T11:32:00.630Z,64.6
2017-10-17T11:33:01.419Z,56.1
2017-10-17T11:34:02.184Z,51.3
2017-10-17T11:35:02.995Z,57.8
2017-10-17T11:36:03.799Z,49.7
2017-10-17T11:37:04.547Z,63.2
2017-10-17T11:38:05.359Z,49.9
2017-10-17T11:39:06.114Z,52.2
2017-10-17T11:40:06.911Z,60.8
2017-10-17T11:41:07.803Z,56.9
2017-10-17T11:42:08.599Z,59.7
2017-10-17T11:43:09.359Z,58.6
2017-10-17T11:44:10.099Z,52.3
2017-10-17T11:45:10.840Z,54.5
2017-10-17T11:46:11.629Z,51.7
2017-10-17T11:47:12.429Z,53.2
2017-10-17T11:48:13.190Z,58.9
2017-10-17T11:49:13.930Z,56.4
2017-10-17T11:50:14.734Z,55.8
2017-10-17T11:51:15.574Z,61.4
2017-10-17T11:52:16.390Z,57.6
2017-10-17T11:53:17.120Z,56.1
2017-10-17T11:54:17.965Z,50.6
2017-10-17T11:55:18.664Z,62.1
2017-10-17T11:56:19.459Z,46.4
2017-10-17T11:57:20.199Z,65.0
2017-10-17T11:58:21.039Z,62.4
2017-10-17T11:59:21.867Z,58.4
2017-10-17T12:00:22.692Z,63.5
2017-10-17T12:01:23.796Z,62.6
2017-10-17T12:02:24.582Z,65.3
2017-10-17T12:03:25.318Z,58.4
2017-10-17T12:04:26.049Z,60.2
2017-10-17T12:05:26.800Z,70.5
2017-10-17T12:06:28.000Z,71.4
2017-10-17T12:07:28.816Z,61.6
2017-10-17T12:08:29.629Z,60.9
2017-10-17T12:09:30.368Z,56.3
2017-10-17T12:10:31.108Z,65.0
2017-10-17T12:11:32.199Z,70.2
2017-10-17T12:12:32.939Z,60.5
2017-10-17T12:13:33.671Z,60.0
2017-10-17T12:14:34.417Z,61.6
2017-10-17T12:15:35.158Z,53.6
2017-10-17T12:16:36.258Z,61.4
2017-10-17T12:17:37.008Z,66.1
2017-10-17T12:18:37.748Z,68.8
2017-10-17T12:19:38.567Z,65.6
2017-10-17T12:20:39.363Z,68.1
2017-10-17T12:21:40.914Z,65.8
2017-10-17T12:22:41.717Z,53.2
2017-10-17T12:23:42.461Z,64.1
2017-10-17T12:24:43.243Z,55.5
2017-10-17T12:25:43.998Z,60.9
2017-10-17T12:26:44.857Z,62.9
2017-10-17T12:27:45.638Z,59.8
2017-10-17T12:28:46.381Z,64.8
2017-10-17T12:29:47.127Z,60.1
2017-10-17T12:30:47.876Z,64.2
2017-10-17T12:31:48.662Z,61.5
2017-10-17T12:32:49.488Z,70.3
2017-10-17T12:33:50.227Z,55.4
2017-10-17T12:34:50.968Z,64.8
2017-10-17T12:35:51.707Z,69.0
2017-10-17T12:36:52.502Z,61.9
2017-10-17T12:37:53.292Z,62.6
2017-10-17T12:38:54.089Z,68.5
2017-10-17T12:39:54.897Z,75.5
2017-10-17T12:40:55.641Z,62.6
2017-10-17T12:41:56.481Z,71.7
2017-10-17T12:42:57.268Z,65.3
2017-10-17T12:43:58.099Z,68.6
2017-10-17T12:44:58.868Z,69.4
2017-10-17T12:45:59.606Z,62.8
2017-10-17T12:47:00.703Z,67.2
2017-10-17T12:48:01.497Z,61.4
2017-10-17T12:49:02.246Z,57.9
2017-10-17T12:50:03.042Z,67.1
2017-10-17T12:51:03.791Z,68.8
2017-10-17T12:52:04.699Z,67.8
2017-10-17T12:53:05.520Z,65.9
2017-10-17T12:54:06.266Z,75.5
2017-10-17T12:55:07.009Z,69.3
2017-10-17T12:56:07.791Z,67.3
2017-10-17T12:57:08.596Z,63.9
2017-10-17T12:58:09.389Z,58.7
2017-10-17T12:59:10.200Z,62.2
2017-10-17T13:00:10.942Z,54.9
2017-10-17T13:01:11.759Z,67.6
2017-10-17T13:02:12.496Z,70.0
2017-10-17T13:03:13.298Z,62.8
2017-10-17T13:04:14.038Z,62.0
2017-10-17T13:05:14.864Z,58.2
2017-10-17T13:06:15.648Z,66.7
2017-10-17T13:07:16.405Z,63.3
2017-10-17T13:08:18.007Z,73.5
2017-10-17T13:09:18.758Z,59.5
2017-10-17T13:10:19.566Z,57.1
2017-10-17T13:11:20.315Z,60.4
2017-10-17T13:12:21.056Z,63.9
2017-10-17T13:13:21.848Z,64.9
2017-10-17T13:14:22.666Z,58.4
2017-10-17T13:15:23.412Z,59.2
2017-10-17T13:16:24.148Z,64.5
2017-10-17T13:17:24.887Z,61.8
2017-10-17T13:18:25.678Z,64.4
2017-10-17T13:19:26.506Z,65.8
2017-10-17T13:20:27.257Z,63.6
2017-10-17T13:21:27.989Z,67.0
2017-10-17T13:22:28.731Z,52.8
2017-10-17T13:23:29.913Z,63.1
2017-10-17T13:24:30.741Z,67.3
2017-10-17T13:25:31.546Z,65.3
2017-10-17T13:26:32.282Z,70.1
2017-10-17T13:27:33.033Z,65.1
2017-10-17T13:28:33.876Z,65.2
2017-10-17T13:29:34.615Z,66.7
2017-10-17T13:30:35.348Z,63.3
2017-10-17T13:31:36.159Z,73.0